sensor_id;sensor_type;location;lat;lon;timestamp;P1;durP1;ratioP1;P2;durP2;ratioP2
19016;SDS011;9641;51.494;6.670;2024-02-15T00:00:00;31.70;;;16.10;;
19016;SDS011;9641;51.494;6.670;2024-02-15T00:02:29;31.33;;;15.17;;
19016;SDS011;9641;51.494;6.670;2024-02-15T00:04:56;27.30;;;16.17;;
19016;SDS011;9641;51.494;6.670;2024-02-15T00:07:23;35.50;;;17.13;;
19016;SDS011;9641;51.494;6.670;2024-02-15T00:09:49;31.00;;;17.40;;
19016;SDS011;9641;51.494;6.670;2024-02-15T00:12:16;28.50;;;15.83;;
19016;SDS011;9641;51.494;6.670;2024-02-15T00:14:43;32.47;;;17.50;;
19016;SDS011;9641;51.494;6.670;2024-02-15T00:17:11;33.83;;;15.60;;
19016;SDS011;9641;51.494;6.670;2024-02-15T00:19:38;24.33;;;16.20;;
19016;SDS011;9641;51.494;6.670;2024-02-15T00:22:07;27.17;;;17.63;;
19016;SDS011;9641;51.494;6.670;2024-02-15T00:24:36;35.47;;;19.07;;
19016;SDS011;9641;51.494;6.670;2024-02-15T00:27:03;32.00;;;18.03;;
19016;SDS011;9641;51.494;6.670;2024-02-15T00:29:30;27.77;;;17.57;;
19016;SDS011;9641;51.494;6.670;2024-02-15T00:31:59;20.57;;;15.10;;
19016;SDS011;9641;51.494;6.670;2024-02-15T00:34:27;32.13;;;14.87;;
19016;SDS011;9641;51.494;6.670;2024-02-15T00:36:54;25.43;;;12.90;;
19016;SDS011;9641;51.494;6.670;2024-02-15T00:39:21;30.37;;;15.03;;
19016;SDS011;9641;51.494;6.670;2024-02-15T00:41:48;26.90;;;12.63;;
19016;SDS011;9641;51.494;6.670;2024-02-15T00:44:14;25.07;;;13.33;;
19016;SDS011;9641;51.494;6.670;2024-02-15T00:46:42;20.47;;;10.90;;
19016;SDS011;9641;51.494;6.670;2024-02-15T00:49:09;18.77;;;11.83;;
19016;SDS011;9641;51.494;6.670;2024-02-15T00:51:37;20.77;;;11.20;;
19016;SDS011;9641;51.494;6.670;2024-02-15T00:54:04;24.27;;;13.00;;
19016;SDS011;9641;51.494;6.670;2024-02-15T00:56:31;21.20;;;12.67;;
19016;SDS011;9641;51.494;6.670;2024-02-15T00:58:58;17.53;;;12.93;;
19016;SDS011;9641;51.494;6.670;2024-02-15T01:01:26;23.97;;;12.47;;
19016;SDS011;9641;51.494;6.670;2024-02-15T01:03:53;21.10;;;10.33;;
19016;SDS011;9641;51.494;6.670;2024-02-15T01:06:20;20.07;;;11.00;;
19016;SDS011;9641;51.494;6.670;2024-02-15T01:08:48;20.00;;;9.83;;
19016;SDS011;9641;51.494;6.670;2024-02-15T01:11:15;15.27;;;9.63;;
19016;SDS011;9641;51.494;6.670;2024-02-15T01:13:42;21.90;;;10.07;;
19016;SDS011;9641;51.494;6.670;2024-02-15T01:16:10;15.40;;;9.70;;
19016;SDS011;9641;51.494;6.670;2024-02-15T01:18:36;20.27;;;10.17;;
19016;SDS011;9641;51.494;6.670;2024-02-15T01:21:04;23.30;;;10.57;;
19016;SDS011;9641;51.494;6.670;2024-02-15T01:23:31;19.40;;;11.20;;
19016;SDS011;9641;51.494;6.670;2024-02-15T01:26:01;19.10;;;9.40;;
19016;SDS011;9641;51.494;6.670;2024-02-15T01:28:28;16.77;;;9.23;;
19016;SDS011;9641;51.494;6.670;2024-02-15T01:30:55;21.27;;;10.40;;
19016;SDS011;9641;51.494;6.670;2024-02-15T01:33:24;18.73;;;9.50;;
19016;SDS011;9641;51.494;6.670;2024-02-15T01:35:52;18.57;;;9.97;;
19016;SDS011;9641;51.494;6.670;2024-02-15T01:38:19;21.60;;;10.80;;
19016;SDS011;9641;51.494;6.670;2024-02-15T01:40:46;17.90;;;10.37;;
19016;SDS011;9641;51.494;6.670;2024-02-15T01:43:15;16.57;;;9.97;;
19016;SDS011;9641;51.494;6.670;2024-02-15T01:45:42;20.07;;;10.10;;
19016;SDS011;9641;51.494;6.670;2024-02-15T01:48:09;19.30;;;10.37;;
19016;SDS011;9641;51.494;6.670;2024-02-15T01:50:36;18.60;;;9.83;;
19016;SDS011;9641;51.494;6.670;2024-02-15T01:53:03;18.93;;;9.83;;
19016;SDS011;9641;51.494;6.670;2024-02-15T01:55:33;16.30;;;9.83;;
19016;SDS011;9641;51.494;6.670;2024-02-15T01:58:00;18.40;;;9.47;;
19016;SDS011;9641;51.494;6.670;2024-02-15T02:00:29;19.20;;;9.47;;
19016;SDS011;9641;51.494;6.670;2024-02-15T02:02:57;21.43;;;8.90;;
19016;SDS011;9641;51.494;6.670;2024-02-15T02:05:28;15.83;;;9.20;;
19016;SDS011;9641;51.494;6.670;2024-02-15T02:07:56;17.07;;;8.57;;
19016;SDS011;9641;51.494;6.670;2024-02-15T02:10:26;19.73;;;8.10;;
19016;SDS011;9641;51.494;6.670;2024-02-15T02:12:57;19.87;;;8.40;;
19016;SDS011;9641;51.494;6.670;2024-02-15T02:15:25;12.57;;;8.13;;
19016;SDS011;9641;51.494;6.670;2024-02-15T02:17:54;12.33;;;8.17;;
19016;SDS011;9641;51.494;6.670;2024-02-15T02:20:21;17.70;;;8.17;;
19016;SDS011;9641;51.494;6.670;2024-02-15T02:22:48;17.73;;;7.77;;
19016;SDS011;9641;51.494;6.670;2024-02-15T02:25:18;14.83;;;7.80;;
19016;SDS011;9641;51.494;6.670;2024-02-15T02:27:45;14.50;;;7.17;;
19016;SDS011;9641;51.494;6.670;2024-02-15T02:30:14;18.90;;;8.00;;
19016;SDS011;9641;51.494;6.670;2024-02-15T02:32:43;12.13;;;7.10;;
19016;SDS011;9641;51.494;6.670;2024-02-15T02:35:11;15.77;;;6.53;;
19016;SDS011;9641;51.494;6.670;2024-02-15T02:37:38;16.73;;;7.33;;
19016;SDS011;9641;51.494;6.670;2024-02-15T02:40:06;13.97;;;7.53;;
19016;SDS011;9641;51.494;6.670;2024-02-15T02:42:36;14.50;;;6.17;;
19016;SDS011;9641;51.494;6.670;2024-02-15T02:45:12;22.50;;;7.20;;
19016;SDS011;9641;51.494;6.670;2024-02-15T02:47:39;12.93;;;6.00;;
19016;SDS011;9641;51.494;6.670;2024-02-15T02:50:06;17.93;;;6.77;;
19016;SDS011;9641;51.494;6.670;2024-02-15T02:52:34;15.13;;;5.97;;
19016;SDS011;9641;51.494;6.670;2024-02-15T02:55:04;13.73;;;5.97;;
19016;SDS011;9641;51.494;6.670;2024-02-15T02:57:33;13.50;;;6.60;;
19016;SDS011;9641;51.494;6.670;2024-02-15T03:00:03;12.67;;;5.73;;
19016;SDS011;9641;51.494;6.670;2024-02-15T03:02:33;13.30;;;5.73;;
19016;SDS011;9641;51.494;6.670;2024-02-15T03:05:01;15.50;;;5.93;;
19016;SDS011;9641;51.494;6.670;2024-02-15T03:07:29;17.57;;;6.40;;
19016;SDS011;9641;51.494;6.670;2024-02-15T03:09:59;11.50;;;5.33;;
19016;SDS011;9641;51.494;6.670;2024-02-15T03:12:26;12.43;;;5.67;;
19016;SDS011;9641;51.494;6.670;2024-02-15T03:14:55;11.73;;;5.53;;
19016;SDS011;9641;51.494;6.670;2024-02-15T03:17:22;12.63;;;5.40;;
19016;SDS011;9641;51.494;6.670;2024-02-15T03:19:49;14.37;;;6.10;;
19016;SDS011;9641;51.494;6.670;2024-02-15T03:22:16;13.83;;;5.10;;
19016;SDS011;9641;51.494;6.670;2024-02-15T03:24:43;14.73;;;5.20;;
19016;SDS011;9641;51.494;6.670;2024-02-15T03:27:10;10.07;;;5.27;;
19016;SDS011;9641;51.494;6.670;2024-02-15T03:29:37;11.57;;;5.37;;
19016;SDS011;9641;51.494;6.670;2024-02-15T03:32:06;10.97;;;4.70;;
19016;SDS011;9641;51.494;6.670;2024-02-15T03:34:34;9.97;;;5.63;;
19016;SDS011;9641;51.494;6.670;2024-02-15T03:37:01;11.50;;;5.17;;
19016;SDS011;9641;51.494;6.670;2024-02-15T03:39:29;20.90;;;5.17;;
19016;SDS011;9641;51.494;6.670;2024-02-15T03:41:58;12.80;;;4.90;;
19016;SDS011;9641;51.494;6.670;2024-02-15T03:44:24;23.33;;;6.67;;
19016;SDS011;9641;51.494;6.670;2024-02-15T03:46:52;14.53;;;6.50;;
19016;SDS011;9641;51.494;6.670;2024-02-15T03:49:21;13.77;;;5.80;;
19016;SDS011;9641;51.494;6.670;2024-02-15T03:51:48;14.20;;;6.20;;
19016;SDS011;9641;51.494;6.670;2024-02-15T03:54:15;14.87;;;6.23;;
19016;SDS011;9641;51.494;6.670;2024-02-15T03:56:51;12.13;;;5.57;;
19016;SDS011;9641;51.494;6.670;2024-02-15T03:59:20;14.27;;;5.80;;
19016;SDS011;9641;51.494;6.670;2024-02-15T04:01:52;16.00;;;6.30;;
19016;SDS011;9641;51.494;6.670;2024-02-15T04:04:19;14.23;;;6.43;;
19016;SDS011;9641;51.494;6.670;2024-02-15T04:06:48;9.73;;;5.60;;
19016;SDS011;9641;51.494;6.670;2024-02-15T04:09:16;16.30;;;6.60;;
19016;SDS011;9641;51.494;6.670;2024-02-15T04:11:46;17.13;;;5.77;;
19016;SDS011;9641;51.494;6.670;2024-02-15T04:14:17;15.63;;;5.40;;
19016;SDS011;9641;51.494;6.670;2024-02-15T04:16:44;14.33;;;5.50;;
19016;SDS011;9641;51.494;6.670;2024-02-15T04:19:11;14.90;;;5.60;;
19016;SDS011;9641;51.494;6.670;2024-02-15T04:21:39;14.13;;;5.60;;
19016;SDS011;9641;51.494;6.670;2024-02-15T04:24:10;15.57;;;5.70;;
19016;SDS011;9641;51.494;6.670;2024-02-15T04:26:37;7.87;;;4.87;;
19016;SDS011;9641;51.494;6.670;2024-02-15T04:29:04;14.60;;;5.30;;
19016;SDS011;9641;51.494;6.670;2024-02-15T04:31:34;14.43;;;5.47;;
19016;SDS011;9641;51.494;6.670;2024-02-15T04:34:04;11.70;;;5.00;;
19016;SDS011;9641;51.494;6.670;2024-02-15T04:36:31;11.40;;;5.23;;
19016;SDS011;9641;51.494;6.670;2024-02-15T04:38:59;11.03;;;4.93;;
19016;SDS011;9641;51.494;6.670;2024-02-15T04:41:29;7.77;;;5.00;;
19016;SDS011;9641;51.494;6.670;2024-02-15T04:43:56;14.07;;;5.70;;
19016;SDS011;9641;51.494;6.670;2024-02-15T04:46:23;10.67;;;4.53;;
19016;SDS011;9641;51.494;6.670;2024-02-15T04:48:50;9.53;;;4.97;;
19016;SDS011;9641;51.494;6.670;2024-02-15T04:51:17;11.63;;;4.77;;
19016;SDS011;9641;51.494;6.670;2024-02-15T04:53:45;9.93;;;5.13;;
19016;SDS011;9641;51.494;6.670;2024-02-15T04:56:13;13.40;;;4.40;;
19016;SDS011;9641;51.494;6.670;2024-02-15T04:58:41;9.60;;;4.93;;
19016;SDS011;9641;51.494;6.670;2024-02-15T05:01:12;11.90;;;5.00;;
19016;SDS011;9641;51.494;6.670;2024-02-15T05:03:39;9.17;;;5.07;;
19016;SDS011;9641;51.494;6.670;2024-02-15T05:06:06;9.53;;;5.10;;
19016;SDS011;9641;51.494;6.670;2024-02-15T05:08:35;10.23;;;5.60;;
19016;SDS011;9641;51.494;6.670;2024-02-15T05:11:07;9.30;;;4.90;;
19016;SDS011;9641;51.494;6.670;2024-02-15T05:13:39;13.13;;;4.87;;
19016;SDS011;9641;51.494;6.670;2024-02-15T05:16:07;10.20;;;4.57;;
19016;SDS011;9641;51.494;6.670;2024-02-15T05:18:34;9.67;;;4.10;;
19016;SDS011;9641;51.494;6.670;2024-02-15T05:21:03;10.47;;;4.40;;
19016;SDS011;9641;51.494;6.670;2024-02-15T05:23:34;9.60;;;4.03;;
19016;SDS011;9641;51.494;6.670;2024-02-15T05:26:02;13.43;;;4.33;;
19016;SDS011;9641;51.494;6.670;2024-02-15T05:28:29;14.03;;;4.50;;
19016;SDS011;9641;51.494;6.670;2024-02-15T05:31:10;10.03;;;4.30;;
19016;SDS011;9641;51.494;6.670;2024-02-15T05:33:39;11.97;;;4.40;;
19016;SDS011;9641;51.494;6.670;2024-02-15T05:36:09;10.17;;;5.23;;
19016;SDS011;9641;51.494;6.670;2024-02-15T05:38:36;8.67;;;4.60;;
19016;SDS011;9641;51.494;6.670;2024-02-15T05:41:03;9.60;;;4.67;;
19016;SDS011;9641;51.494;6.670;2024-02-15T05:43:32;11.00;;;4.70;;
19016;SDS011;9641;51.494;6.670;2024-02-15T05:46:01;8.47;;;4.83;;
19016;SDS011;9641;51.494;6.670;2024-02-15T05:48:30;6.50;;;4.60;;
19016;SDS011;9641;51.494;6.670;2024-02-15T05:50:57;9.87;;;4.83;;
19016;SDS011;9641;51.494;6.670;2024-02-15T05:53:24;11.40;;;5.23;;
19016;SDS011;9641;51.494;6.670;2024-02-15T05:55:51;7.20;;;4.60;;
19016;SDS011;9641;51.494;6.670;2024-02-15T05:58:18;12.43;;;5.47;;
19016;SDS011;9641;51.494;6.670;2024-02-15T06:00:46;7.43;;;4.73;;
19016;SDS011;9641;51.494;6.670;2024-02-15T06:03:15;7.67;;;4.83;;
19016;SDS011;9641;51.494;6.670;2024-02-15T06:05:43;10.17;;;4.87;;
19016;SDS011;9641;51.494;6.670;2024-02-15T06:08:10;10.20;;;4.93;;
19016;SDS011;9641;51.494;6.670;2024-02-15T06:10:38;10.40;;;5.40;;
19016;SDS011;9641;51.494;6.670;2024-02-15T06:13:05;10.43;;;5.07;;
19016;SDS011;9641;51.494;6.670;2024-02-15T06:15:33;8.30;;;5.00;;
19016;SDS011;9641;51.494;6.670;2024-02-15T06:18:01;10.77;;;5.50;;
19016;SDS011;9641;51.494;6.670;2024-02-15T06:20:34;11.50;;;5.20;;
19016;SDS011;9641;51.494;6.670;2024-02-15T06:23:02;10.97;;;5.23;;
19016;SDS011;9641;51.494;6.670;2024-02-15T06:25:31;10.17;;;5.00;;
19016;SDS011;9641;51.494;6.670;2024-02-15T06:27:58;11.40;;;5.17;;
19016;SDS011;9641;51.494;6.670;2024-02-15T06:30:27;13.27;;;5.57;;
19016;SDS011;9641;51.494;6.670;2024-02-15T06:33:12;12.87;;;5.47;;
19016;SDS011;9641;51.494;6.670;2024-02-15T06:35:57;8.20;;;4.70;;
19016;SDS011;9641;51.494;6.670;2024-02-15T06:38:42;11.13;;;6.13;;
19016;SDS011;9641;51.494;6.670;2024-02-15T06:41:27;13.00;;;5.80;;
19016;SDS011;9641;51.494;6.670;2024-02-15T06:43:54;12.70;;;5.00;;
19016;SDS011;9641;51.494;6.670;2024-02-15T06:46:21;13.50;;;5.07;;
19016;SDS011;9641;51.494;6.670;2024-02-15T06:48:48;9.93;;;5.23;;
19016;SDS011;9641;51.494;6.670;2024-02-15T06:51:14;9.23;;;5.47;;
19016;SDS011;9641;51.494;6.670;2024-02-15T06:53:43;8.13;;;4.77;;
19016;SDS011;9641;51.494;6.670;2024-02-15T06:56:10;13.17;;;6.10;;
19016;SDS011;9641;51.494;6.670;2024-02-15T06:58:37;14.27;;;6.23;;
19016;SDS011;9641;51.494;6.670;2024-02-15T07:01:05;13.90;;;5.67;;
19016;SDS011;9641;51.494;6.670;2024-02-15T07:03:32;14.17;;;5.30;;
19016;SDS011;9641;51.494;6.670;2024-02-15T07:05:59;11.73;;;5.20;;
19016;SDS011;9641;51.494;6.670;2024-02-15T07:08:27;12.47;;;5.03;;
19016;SDS011;9641;51.494;6.670;2024-02-15T07:10:56;12.27;;;4.47;;
19016;SDS011;9641;51.494;6.670;2024-02-15T07:13:23;10.33;;;3.97;;
19016;SDS011;9641;51.494;6.670;2024-02-15T07:15:51;6.43;;;3.80;;
19016;SDS011;9641;51.494;6.670;2024-02-15T07:18:18;7.03;;;4.20;;
19016;SDS011;9641;51.494;6.670;2024-02-15T07:20:47;10.27;;;4.10;;
19016;SDS011;9641;51.494;6.670;2024-02-15T07:23:14;10.37;;;3.97;;
19016;SDS011;9641;51.494;6.670;2024-02-15T07:25:41;8.40;;;4.23;;
19016;SDS011;9641;51.494;6.670;2024-02-15T07:28:09;8.47;;;5.00;;
19016;SDS011;9641;51.494;6.670;2024-02-15T07:30:36;12.93;;;4.50;;
19016;SDS011;9641;51.494;6.670;2024-02-15T07:33:03;10.17;;;4.10;;
19016;SDS011;9641;51.494;6.670;2024-02-15T07:35:31;8.30;;;4.47;;
19016;SDS011;9641;51.494;6.670;2024-02-15T07:38:00;12.50;;;4.27;;
19016;SDS011;9641;51.494;6.670;2024-02-15T07:40:27;9.83;;;4.23;;
19016;SDS011;9641;51.494;6.670;2024-02-15T07:42:55;9.07;;;4.70;;
19016;SDS011;9641;51.494;6.670;2024-02-15T07:45:24;11.63;;;5.03;;
19016;SDS011;9641;51.494;6.670;2024-02-15T07:47:51;12.17;;;5.17;;
19016;SDS011;9641;51.494;6.670;2024-02-15T07:50:18;9.23;;;4.60;;
19016;SDS011;9641;51.494;6.670;2024-02-15T07:52:48;12.50;;;5.60;;
19016;SDS011;9641;51.494;6.670;2024-02-15T07:55:16;10.07;;;4.70;;
19016;SDS011;9641;51.494;6.670;2024-02-15T07:57:43;7.63;;;4.03;;
19016;SDS011;9641;51.494;6.670;2024-02-15T08:00:11;11.23;;;4.80;;
19016;SDS011;9641;51.494;6.670;2024-02-15T08:02:42;9.53;;;4.47;;
19016;SDS011;9641;51.494;6.670;2024-02-15T08:05:10;12.63;;;5.00;;
19016;SDS011;9641;51.494;6.670;2024-02-15T08:07:38;9.83;;;4.40;;
19016;SDS011;9641;51.494;6.670;2024-02-15T08:10:07;10.43;;;4.60;;
19016;SDS011;9641;51.494;6.670;2024-02-15T08:12:38;9.80;;;4.67;;
19016;SDS011;9641;51.494;6.670;2024-02-15T08:15:06;7.70;;;4.43;;
19016;SDS011;9641;51.494;6.670;2024-02-15T08:17:37;11.57;;;5.00;;
19016;SDS011;9641;51.494;6.670;2024-02-15T08:20:07;13.93;;;5.13;;
19016;SDS011;9641;51.494;6.670;2024-02-15T08:22:37;10.70;;;5.03;;
19016;SDS011;9641;51.494;6.670;2024-02-15T08:25:06;11.90;;;4.73;;
19016;SDS011;9641;51.494;6.670;2024-02-15T08:27:36;10.27;;;5.27;;
19016;SDS011;9641;51.494;6.670;2024-02-15T08:30:07;19.03;;;5.93;;
19016;SDS011;9641;51.494;6.670;2024-02-15T08:32:36;10.17;;;5.10;;
19016;SDS011;9641;51.494;6.670;2024-02-15T08:35:04;13.17;;;5.63;;
19016;SDS011;9641;51.494;6.670;2024-02-15T08:37:45;11.40;;;5.40;;
19016;SDS011;9641;51.494;6.670;2024-02-15T08:40:34;13.67;;;4.77;;
19016;SDS011;9641;51.494;6.670;2024-02-15T08:43:01;12.03;;;4.87;;
19016;SDS011;9641;51.494;6.670;2024-02-15T08:45:29;12.23;;;4.57;;
19016;SDS011;9641;51.494;6.670;2024-02-15T08:47:56;12.20;;;4.80;;
19016;SDS011;9641;51.494;6.670;2024-02-15T08:50:25;9.30;;;4.63;;
19016;SDS011;9641;51.494;6.670;2024-02-15T08:52:53;12.57;;;6.03;;
19016;SDS011;9641;51.494;6.670;2024-02-15T08:55:20;16.60;;;5.77;;
19016;SDS011;9641;51.494;6.670;2024-02-15T08:57:51;21.83;;;7.03;;
19016;SDS011;9641;51.494;6.670;2024-02-15T09:00:19;13.80;;;6.60;;
19016;SDS011;9641;51.494;6.670;2024-02-15T09:02:46;18.17;;;7.30;;
19016;SDS011;9641;51.494;6.670;2024-02-15T09:05:14;17.93;;;7.90;;
19016;SDS011;9641;51.494;6.670;2024-02-15T09:07:45;21.80;;;10.57;;
19016;SDS011;9641;51.494;6.670;2024-02-15T09:10:14;32.97;;;11.67;;
19016;SDS011;9641;51.494;6.670;2024-02-15T09:12:43;30.37;;;12.07;;
19016;SDS011;9641;51.494;6.670;2024-02-15T09:15:13;32.47;;;12.87;;
19016;SDS011;9641;51.494;6.670;2024-02-15T09:17:40;25.13;;;9.77;;
19016;SDS011;9641;51.494;6.670;2024-02-15T09:20:11;17.03;;;7.90;;
19016;SDS011;9641;51.494;6.670;2024-02-15T09:22:40;20.50;;;8.63;;
19016;SDS011;9641;51.494;6.670;2024-02-15T09:25:11;20.87;;;8.20;;
19016;SDS011;9641;51.494;6.670;2024-02-15T09:27:38;16.83;;;7.83;;
19016;SDS011;9641;51.494;6.670;2024-02-15T09:30:06;13.53;;;7.30;;
19016;SDS011;9641;51.494;6.670;2024-02-15T09:32:34;18.77;;;6.80;;
19016;SDS011;9641;51.494;6.670;2024-02-15T09:35:02;15.43;;;7.63;;
19016;SDS011;9641;51.494;6.670;2024-02-15T09:37:31;14.90;;;7.13;;
19016;SDS011;9641;51.494;6.670;2024-02-15T09:39:59;13.50;;;6.77;;
19016;SDS011;9641;51.494;6.670;2024-02-15T09:42:31;21.50;;;7.63;;
19016;SDS011;9641;51.494;6.670;2024-02-15T09:45:00;11.70;;;6.53;;
19016;SDS011;9641;51.494;6.670;2024-02-15T09:47:29;13.57;;;6.77;;
19016;SDS011;9641;51.494;6.670;2024-02-15T09:50:00;14.57;;;6.80;;
19016;SDS011;9641;51.494;6.670;2024-02-15T09:52:28;14.60;;;8.03;;
19016;SDS011;9641;51.494;6.670;2024-02-15T09:54:57;10.10;;;5.80;;
19016;SDS011;9641;51.494;6.670;2024-02-15T09:57:26;13.57;;;6.03;;
19016;SDS011;9641;51.494;6.670;2024-02-15T09:59:54;12.80;;;5.90;;
19016;SDS011;9641;51.494;6.670;2024-02-15T10:02:21;13.17;;;6.17;;
19016;SDS011;9641;51.494;6.670;2024-02-15T10:04:49;13.57;;;6.10;;
19016;SDS011;9641;51.494;6.670;2024-02-15T10:07:16;16.10;;;6.73;;
19016;SDS011;9641;51.494;6.670;2024-02-15T10:09:43;14.40;;;7.10;;
19016;SDS011;9641;51.494;6.670;2024-02-15T10:12:11;16.37;;;8.20;;
19016;SDS011;9641;51.494;6.670;2024-02-15T10:14:38;14.17;;;6.60;;
19016;SDS011;9641;51.494;6.670;2024-02-15T10:17:14;14.97;;;8.17;;
19016;SDS011;9641;51.494;6.670;2024-02-15T10:19:42;15.70;;;6.27;;
19016;SDS011;9641;51.494;6.670;2024-02-15T10:22:09;10.23;;;6.27;;
19016;SDS011;9641;51.494;6.670;2024-02-15T10:24:37;39.13;;;20.70;;
19016;SDS011;9641;51.494;6.670;2024-02-15T10:27:05;38.63;;;15.67;;
19016;SDS011;9641;51.494;6.670;2024-02-15T10:29:33;14.27;;;6.97;;
19016;SDS011;9641;51.494;6.670;2024-02-15T10:32:01;15.67;;;6.23;;
19016;SDS011;9641;51.494;6.670;2024-02-15T10:34:29;14.03;;;6.17;;
19016;SDS011;9641;51.494;6.670;2024-02-15T10:37:10;13.00;;;6.00;;
19016;SDS011;9641;51.494;6.670;2024-02-15T10:39:37;16.57;;;6.13;;
19016;SDS011;9641;51.494;6.670;2024-02-15T10:42:06;14.37;;;6.50;;
19016;SDS011;9641;51.494;6.670;2024-02-15T10:44:38;11.57;;;6.07;;
19016;SDS011;9641;51.494;6.670;2024-02-15T10:47:05;11.60;;;5.90;;
19016;SDS011;9641;51.494;6.670;2024-02-15T10:49:34;11.07;;;6.93;;
19016;SDS011;9641;51.494;6.670;2024-02-15T10:52:01;14.40;;;6.90;;
19016;SDS011;9641;51.494;6.670;2024-02-15T10:54:38;10.03;;;5.07;;
19016;SDS011;9641;51.494;6.670;2024-02-15T10:57:09;10.10;;;4.43;;
19016;SDS011;9641;51.494;6.670;2024-02-15T10:59:39;7.57;;;4.00;;
19016;SDS011;9641;51.494;6.670;2024-02-15T11:02:25;13.07;;;3.87;;
19016;SDS011;9641;51.494;6.670;2024-02-15T11:04:54;10.20;;;3.43;;
19016;SDS011;9641;51.494;6.670;2024-02-15T11:07:28;6.00;;;3.17;;
19016;SDS011;9641;51.494;6.670;2024-02-15T11:09:57;7.30;;;2.70;;
19016;SDS011;9641;51.494;6.670;2024-02-15T11:12:25;8.97;;;3.53;;
19016;SDS011;9641;51.494;6.670;2024-02-15T11:14:54;6.57;;;3.10;;
19016;SDS011;9641;51.494;6.670;2024-02-15T11:17:45;11.23;;;3.33;;
19016;SDS011;9641;51.494;6.670;2024-02-15T11:23:14;9.63;;;2.77;;
19016;SDS011;9641;51.494;6.670;2024-02-15T11:25:51;8.27;;;3.00;;
19016;SDS011;9641;51.494;6.670;2024-02-15T11:28:35;9.23;;;3.10;;
19016;SDS011;9641;51.494;6.670;2024-02-15T11:31:05;7.70;;;3.00;;
19016;SDS011;9641;51.494;6.670;2024-02-15T11:33:37;6.43;;;2.90;;
19016;SDS011;9641;51.494;6.670;2024-02-15T11:36:04;9.47;;;2.83;;
19016;SDS011;9641;51.494;6.670;2024-02-15T11:38:32;3.40;;;2.73;;
19016;SDS011;9641;51.494;6.670;2024-02-15T11:41:03;7.53;;;2.60;;
19016;SDS011;9641;51.494;6.670;2024-02-15T11:43:46;9.43;;;2.73;;
19016;SDS011;9641;51.494;6.670;2024-02-15T11:46:22;8.37;;;2.73;;
19016;SDS011;9641;51.494;6.670;2024-02-15T11:48:51;5.57;;;2.73;;
19016;SDS011;9641;51.494;6.670;2024-02-15T11:51:26;6.33;;;2.50;;
19016;SDS011;9641;51.494;6.670;2024-02-15T11:56:30;10.17;;;2.93;;
19016;SDS011;9641;51.494;6.670;2024-02-15T11:59:03;6.50;;;2.30;;
19016;SDS011;9641;51.494;6.670;2024-02-15T12:01:33;6.43;;;2.60;;
19016;SDS011;9641;51.494;6.670;2024-02-15T12:04:18;7.50;;;2.30;;
19016;SDS011;9641;51.494;6.670;2024-02-15T12:07:03;6.03;;;2.50;;
19016;SDS011;9641;51.494;6.670;2024-02-15T12:09:47;6.73;;;2.40;;
19016;SDS011;9641;51.494;6.670;2024-02-15T12:12:31;5.43;;;2.40;;
19016;SDS011;9641;51.494;6.670;2024-02-15T12:15:16;5.57;;;2.60;;
19016;SDS011;9641;51.494;6.670;2024-02-15T12:18:14;5.63;;;2.60;;
19016;SDS011;9641;51.494;6.670;2024-02-15T12:20:59;8.60;;;2.40;;
19016;SDS011;9641;51.494;6.670;2024-02-15T12:23:28;4.90;;;2.50;;
19016;SDS011;9641;51.494;6.670;2024-02-15T12:25:58;6.03;;;2.10;;
19016;SDS011;9641;51.494;6.670;2024-02-15T12:28:26;7.80;;;2.50;;
19016;SDS011;9641;51.494;6.670;2024-02-15T12:30:54;9.20;;;2.87;;
19016;SDS011;9641;51.494;6.670;2024-02-15T12:33:23;6.47;;;2.10;;
19016;SDS011;9641;51.494;6.670;2024-02-15T12:35:52;5.27;;;2.23;;
19016;SDS011;9641;51.494;6.670;2024-02-15T12:38:30;7.17;;;2.00;;
19016;SDS011;9641;51.494;6.670;2024-02-15T12:40:59;4.50;;;2.17;;
19016;SDS011;9641;51.494;6.670;2024-02-15T12:43:27;9.57;;;2.20;;
19016;SDS011;9641;51.494;6.670;2024-02-15T12:45:54;4.77;;;2.07;;
19016;SDS011;9641;51.494;6.670;2024-02-15T12:48:22;8.37;;;2.10;;
19016;SDS011;9641;51.494;6.670;2024-02-15T12:50:51;4.13;;;2.08;;
19016;SDS011;9641;51.494;6.670;2024-02-15T12:53:21;5.53;;;2.15;;
19016;SDS011;9641;51.494;6.670;2024-02-15T12:55:52;6.18;;;2.03;;
19016;SDS011;9641;51.494;6.670;2024-02-15T12:58:21;6.78;;;1.77;;
19016;SDS011;9641;51.494;6.670;2024-02-15T13:00:49;8.63;;;1.77;;
19016;SDS011;9641;51.494;6.670;2024-02-15T13:03:20;2.97;;;1.80;;
19016;SDS011;9641;51.494;6.670;2024-02-15T13:05:48;5.25;;;1.77;;
19016;SDS011;9641;51.494;6.670;2024-02-15T13:08:16;5.50;;;2.00;;
19016;SDS011;9641;51.494;6.670;2024-02-15T13:10:45;5.70;;;2.20;;
19016;SDS011;9641;51.494;6.670;2024-02-15T13:13:12;6.28;;;1.73;;
19016;SDS011;9641;51.494;6.670;2024-02-15T13:15:41;4.22;;;1.80;;
19016;SDS011;9641;51.494;6.670;2024-02-15T13:18:09;5.90;;;1.95;;
19016;SDS011;9641;51.494;6.670;2024-02-15T13:20:38;7.55;;;2.17;;
19016;SDS011;9641;51.494;6.670;2024-02-15T13:23:07;2.80;;;1.38;;
19016;SDS011;9641;51.494;6.670;2024-02-15T13:25:40;5.45;;;1.90;;
19016;SDS011;9641;51.494;6.670;2024-02-15T13:28:08;4.07;;;1.77;;
19016;SDS011;9641;51.494;6.670;2024-02-15T13:30:37;4.65;;;1.85;;
19016;SDS011;9641;51.494;6.670;2024-02-15T13:33:06;3.42;;;1.85;;
19016;SDS011;9641;51.494;6.670;2024-02-15T13:35:33;5.63;;;1.88;;
19016;SDS011;9641;51.494;6.670;2024-02-15T13:38:01;3.55;;;1.98;;
19016;SDS011;9641;51.494;6.670;2024-02-15T13:40:30;5.50;;;1.83;;
19016;SDS011;9641;51.494;6.670;2024-02-15T13:42:57;5.35;;;1.83;;
19016;SDS011;9641;51.494;6.670;2024-02-15T13:45:27;3.10;;;1.90;;
19016;SDS011;9641;51.494;6.670;2024-02-15T13:47:57;7.32;;;2.10;;
19016;SDS011;9641;51.494;6.670;2024-02-15T13:50:28;7.60;;;2.20;;
19016;SDS011;9641;51.494;6.670;2024-02-15T13:52:55;7.15;;;2.00;;
19016;SDS011;9641;51.494;6.670;2024-02-15T13:55:23;5.03;;;1.90;;
19016;SDS011;9641;51.494;6.670;2024-02-15T13:57:52;9.02;;;2.30;;
19016;SDS011;9641;51.494;6.670;2024-02-15T14:00:20;5.00;;;1.98;;
19016;SDS011;9641;51.494;6.670;2024-02-15T14:02:48;2.45;;;1.95;;
19016;SDS011;9641;51.494;6.670;2024-02-15T14:05:15;7.30;;;2.30;;
19016;SDS011;9641;51.494;6.670;2024-02-15T14:07:45;2.33;;;1.58;;
19016;SDS011;9641;51.494;6.670;2024-02-15T14:10:14;5.43;;;2.30;;
19016;SDS011;9641;51.494;6.670;2024-02-15T14:12:43;4.28;;;2.70;;
19016;SDS011;9641;51.494;6.670;2024-02-15T14:15:12;9.43;;;2.85;;
19016;SDS011;9641;51.494;6.670;2024-02-15T14:17:39;8.93;;;2.65;;
19016;SDS011;9641;51.494;6.670;2024-02-15T14:20:06;5.03;;;2.40;;
19016;SDS011;9641;51.494;6.670;2024-02-15T14:22:38;6.28;;;2.10;;
19016;SDS011;9641;51.494;6.670;2024-02-15T14:25:05;7.10;;;2.47;;
19016;SDS011;9641;51.494;6.670;2024-02-15T14:27:33;3.78;;;2.00;;
19016;SDS011;9641;51.494;6.670;2024-02-15T14:30:00;6.65;;;2.00;;
19016;SDS011;9641;51.494;6.670;2024-02-15T14:32:45;7.82;;;2.10;;
19016;SDS011;9641;51.494;6.670;2024-02-15T14:35:33;6.75;;;1.90;;
19016;SDS011;9641;51.494;6.670;2024-02-15T14:38:04;7.90;;;2.40;;
19016;SDS011;9641;51.494;6.670;2024-02-15T14:40:33;7.35;;;2.40;;
19016;SDS011;9641;51.494;6.670;2024-02-15T14:43:00;9.38;;;2.63;;
19016;SDS011;9641;51.494;6.670;2024-02-15T14:45:29;6.68;;;2.90;;
19016;SDS011;9641;51.494;6.670;2024-02-15T14:47:58;6.40;;;2.72;;
19016;SDS011;9641;51.494;6.670;2024-02-15T14:50:26;4.50;;;2.17;;
19016;SDS011;9641;51.494;6.670;2024-02-15T14:52:53;5.60;;;2.38;;
19016;SDS011;9641;51.494;6.670;2024-02-15T14:55:21;4.13;;;1.90;;
19016;SDS011;9641;51.494;6.670;2024-02-15T14:57:51;7.60;;;2.65;;
19016;SDS011;9641;51.494;6.670;2024-02-15T15:00:18;4.03;;;2.13;;
19016;SDS011;9641;51.494;6.670;2024-02-15T15:02:48;7.32;;;2.47;;
19016;SDS011;9641;51.494;6.670;2024-02-15T15:05:17;8.10;;;2.45;;
19016;SDS011;9641;51.494;6.670;2024-02-15T15:08:01;5.32;;;2.10;;